sensor_id;sensor_type;location;lat;lon;timestamp;temperature;humidity
46037;DHT22;31769;49.304;8.428;2023-04-06T00:01:15;3.20;99.90
46037;DHT22;31769;49.304;8.428;2023-04-06T00:04:16;3.20;99.90
46037;DHT22;31769;49.304;8.428;2023-04-06T00:07:17;3.30;99.90
46037;DHT22;31769;49.304;8.428;2023-04-06T00:10:17;3.30;99.90
46037;DHT22;31769;49.304;8.428;2023-04-06T00:13:18;3.30;99.90
46037;DHT22;31769;49.304;8.428;2023-04-06T00:16:19;3.30;99.90
46037;DHT22;31769;49.304;8.428;2023-04-06T00:19:20;3.20;99.90
46037;DHT22;31769;49.304;8.428;2023-04-06T00:22:21;3.10;99.90
46037;DHT22;31769;49.304;8.428;2023-04-06T00:25:21;3.10;99.90
46037;DHT22;31769;49.304;8.428;2023-04-06T00:28:22;3.10;99.90
46037;DHT22;31769;49.304;8.428;2023-04-06T00:31:26;3.20;99.90
46037;DHT22;31769;49.304;8.428;2023-04-06T00:34:27;3.20;99.90
46037;DHT22;31769;49.304;8.428;2023-04-06T00:37:27;3.30;99.90
46037;DHT22;31769;49.304;8.428;2023-04-06T00:40:28;3.30;99.90
46037;DHT22;31769;49.304;8.428;2023-04-06T00:43:29;3.40;99.90
46037;DHT22;31769;49.304;8.428;2023-04-06T00:46:30;3.30;99.90
46037;DHT22;31769;49.304;8.428;2023-04-06T00:49:32;3.30;99.90
46037;DHT22;31769;49.304;8.428;2023-04-06T00:52:34;3.40;99.90
46037;DHT22;31769;49.304;8.428;2023-04-06T00:55:36;3.30;99.90
46037;DHT22;31769;49.304;8.428;2023-04-06T00:58:37;3.30;99.90
46037;DHT22;31769;49.304;8.428;2023-04-06T01:01:41;3.10;99.90
46037;DHT22;31769;49.304;8.428;2023-04-06T01:04:57;3.10;99.90
46037;DHT22;31769;49.304;8.428;2023-04-06T01:08:03;3.00;99.90
46037;DHT22;31769;49.304;8.428;2023-04-06T01:11:05;2.90;99.90
46037;DHT22;31769;49.304;8.428;2023-04-06T01:14:06;2.90;99.90
46037;DHT22;31769;49.304;8.428;2023-04-06T01:17:32;3.00;99.90
46037;DHT22;31769;49.304;8.428;2023-04-06T01:20:41;2.90;99.90
46037;DHT22;31769;49.304;8.428;2023-04-06T01:23:44;2.80;99.90
46037;DHT22;31769;49.304;8.428;2023-04-06T01:26:46;2.80;99.90
46037;DHT22;31769;49.304;8.428;2023-04-06T01:29:47;2.70;99.90
46037;DHT22;31769;49.304;8.428;2023-04-06T01:32:55;2.70;99.90
46037;DHT22;31769;49.304;8.428;2023-04-06T01:36:17;2.60;99.90
46037;DHT22;31769;49.304;8.428;2023-04-06T01:39:20;2.60;99.90
46037;DHT22;31769;49.304;8.428;2023-04-06T01:42:21;2.60;99.90
46037;DHT22;31769;49.304;8.428;2023-04-06T01:45:22;2.60;99.90
46037;DHT22;31769;49.304;8.428;2023-04-06T01:48:25;2.60;99.90
46037;DHT22;31769;49.304;8.428;2023-04-06T01:51:26;2.50;99.90
46037;DHT22;31769;49.304;8.428;2023-04-06T01:54:33;2.50;99.90
46037;DHT22;31769;49.304;8.428;2023-04-06T01:57:49;2.50;99.90
46037;DHT22;31769;49.304;8.428;2023-04-06T02:01:03;2.50;99.90
46037;DHT22;31769;49.304;8.428;2023-04-06T02:04:10;2.50;99.90
46037;DHT22;31769;49.304;8.428;2023-04-06T02:07:11;2.50;99.90
46037;DHT22;31769;49.304;8.428;2023-04-06T02:10:13;2.50;99.90
46037;DHT22;31769;49.304;8.428;2023-04-06T02:13:15;2.50;99.90
46037;DHT22;31769;49.304;8.428;2023-04-06T02:16:21;3.00;99.90
46037;DHT22;31769;49.304;8.428;2023-04-06T02:19:21;2.40;99.90
46037;DHT22;31769;49.304;8.428;2023-04-06T02:22:22;2.40;99.90
46037;DHT22;31769;49.304;8.428;2023-04-06T02:25:23;2.30;99.90
46037;DHT22;31769;49.304;8.428;2023-04-06T02:28:24;2.20;99.90
46037;DHT22;31769;49.304;8.428;2023-04-06T02:31:25;2.20;99.90
46037;DHT22;31769;49.304;8.428;2023-04-06T02:34:27;2.20;99.90
46037;DHT22;31769;49.304;8.428;2023-04-06T02:37:28;2.20;99.90
46037;DHT22;31769;49.304;8.428;2023-04-06T02:40:29;2.20;99.90
46037;DHT22;31769;49.304;8.428;2023-04-06T02:43:32;2.20;99.90
46037;DHT22;31769;49.304;8.428;2023-04-06T02:46:40;2.10;99.90
46037;DHT22;31769;49.304;8.428;2023-04-06T02:49:41;2.00;99.90
46037;DHT22;31769;49.304;8.428;2023-04-06T02:52:42;2.10;99.90
46037;DHT22;31769;49.304;8.428;2023-04-06T02:55:45;2.00;99.90
46037;DHT22;31769;49.304;8.428;2023-04-06T02:58:45;2.00;99.90
46037;DHT22;31769;49.304;8.428;2023-04-06T03:01:46;2.00;99.90
46037;DHT22;31769;49.304;8.428;2023-04-06T03:04:47;2.10;99.90
46037;DHT22;31769;49.304;8.428;2023-04-06T03:08:10;2.10;99.90
46037;DHT22;31769;49.304;8.428;2023-04-06T03:11:16;2.00;99.90
46037;DHT22;31769;49.304;8.428;2023-04-06T03:14:17;2.70;99.90
46037;DHT22;31769;49.304;8.428;2023-04-06T03:17:22;2.00;99.90
46037;DHT22;31769;49.304;8.428;2023-04-06T03:20:22;1.90;99.90
46037;DHT22;31769;49.304;8.428;2023-04-06T03:23:23;2.10;99.90
46037;DHT22;31769;49.304;8.428;2023-04-06T03:26:29;2.10;99.90
46037;DHT22;31769;49.304;8.428;2023-04-06T03:29:33;3.20;99.90
46037;DHT22;31769;49.304;8.428;2023-04-06T03:32:34;2.10;99.90
46037;DHT22;31769;49.304;8.428;2023-04-06T03:35:36;1.90;99.90
46037;DHT22;31769;49.304;8.428;2023-04-06T03:38:37;1.90;99.90
46037;DHT22;31769;49.304;8.428;2023-04-06T03:41:43;2.00;99.90
46037;DHT22;31769;49.304;8.428;2023-04-06T03:45:03;1.80;99.90
46037;DHT22;31769;49.304;8.428;2023-04-06T03:48:05;1.80;99.90
46037;DHT22;31769;49.304;8.428;2023-04-06T03:51:09;1.80;99.90
46037;DHT22;31769;49.304;8.428;2023-04-06T03:54:09;2.10;99.90
46037;DHT22;31769;49.304;8.428;2023-04-06T03:57:11;1.50;99.90
46037;DHT22;31769;49.304;8.428;2023-04-06T04:00:12;1.40;99.90
46037;DHT22;31769;49.304;8.428;2023-04-06T04:03:13;1.40;99.90
46037;DHT22;31769;49.304;8.428;2023-04-06T04:06:13;1.30;99.90
46037;DHT22;31769;49.304;8.428;2023-04-06T04:09:15;1.20;99.90
46037;DHT22;31769;49.304;8.428;2023-04-06T04:12:16;1.40;99.90
46037;DHT22;31769;49.304;8.428;2023-04-06T04:15:17;1.70;99.90
46037;DHT22;31769;49.304;8.428;2023-04-06T04:18:18;1.60;99.90
46037;DHT22;31769;49.304;8.428;2023-04-06T04:21:18;1.60;99.90
46037;DHT22;31769;49.304;8.428;2023-04-06T04:24:19;1.70;99.90
46037;DHT22;31769;49.304;8.428;2023-04-06T04:27:20;1.60;99.90
46037;DHT22;31769;49.304;8.428;2023-04-06T04:30:23;1.60;99.90
46037;DHT22;31769;49.304;8.428;2023-04-06T04:33:24;2.50;99.90
46037;DHT22;31769;49.304;8.428;2023-04-06T04:36:27;1.60;99.90
46037;DHT22;31769;49.304;8.428;2023-04-06T04:39:31;3.00;99.90
46037;DHT22;31769;49.304;8.428;2023-04-06T04:42:37;1.60;99.90
46037;DHT22;31769;49.304;8.428;2023-04-06T04:45:40;1.60;99.90
46037;DHT22;31769;49.304;8.428;2023-04-06T04:48:50;1.60;99.90
46037;DHT22;31769;49.304;8.428;2023-04-06T04:51:51;2.30;99.90
46037;DHT22;31769;49.304;8.428;2023-04-06T04:55:10;3.20;99.90
46037;DHT22;31769;49.304;8.428;2023-04-06T04:58:10;1.60;99.90
46037;DHT22;31769;49.304;8.428;2023-04-06T05:01:22;1.70;99.90
46037;DHT22;31769;49.304;8.428;2023-04-06T05:04:24;1.70;99.90
46037;DHT22;31769;49.304;8.428;2023-04-06T05:07:29;1.70;99.90
46037;DHT22;31769;49.304;8.428;2023-04-06T05:10:32;1.80;99.90
46037;DHT22;31769;49.304;8.428;2023-04-06T05:13:36;1.80;99.90
46037;DHT22;31769;49.304;8.428;2023-04-06T05:16:42;1.90;99.90
46037;DHT22;31769;49.304;8.428;2023-04-06T05:19:43;1.90;99.90
46037;DHT22;31769;49.304;8.428;2023-04-06T05:22:45;2.00;99.90
46037;DHT22;31769;49.304;8.428;2023-04-06T05:25:46;2.10;99.90
46037;DHT22;31769;49.304;8.428;2023-04-06T05:28:54;2.20;99.90
46037;DHT22;31769;49.304;8.428;2023-04-06T05:31:56;2.30;99.90
46037;DHT22;31769;49.304;8.428;2023-04-06T05:34:57;2.40;99.90
46037;DHT22;31769;49.304;8.428;2023-04-06T05:37:59;2.40;99.90
46037;DHT22;31769;49.304;8.428;2023-04-06T05:41:01;2.50;99.90
46037;DHT22;31769;49.304;8.428;2023-04-06T05:44:06;2.60;99.90
46037;DHT22;31769;49.304;8.428;2023-04-06T05:47:07;2.70;99.90
46037;DHT22;31769;49.304;8.428;2023-04-06T05:50:15;2.70;99.90
46037;DHT22;31769;49.304;8.428;2023-04-06T05:53:16;2.80;99.90
46037;DHT22;31769;49.304;8.428;2023-04-06T05:56:24;2.90;99.90
46037;DHT22;31769;49.304;8.428;2023-04-06T05:59:26;3.10;99.90
46037;DHT22;31769;49.304;8.428;2023-04-06T06:02:30;3.30;99.90
46037;DHT22;31769;49.304;8.428;2023-04-06T06:05:31;3.30;99.90
46037;DHT22;31769;49.304;8.428;2023-04-06T06:08:38;3.40;99.90
46037;DHT22;31769;49.304;8.428;2023-04-06T06:11:45;3.40;99.90
46037;DHT22;31769;49.304;8.428;2023-04-06T06:14:49;3.40;99.90
46037;DHT22;31769;49.304;8.428;2023-04-06T06:17:50;3.30;99.90
46037;DHT22;31769;49.304;8.428;2023-04-06T06:20:51;3.30;99.90
46037;DHT22;31769;49.304;8.428;2023-04-06T06:23:52;3.30;99.90
46037;DHT22;31769;49.304;8.428;2023-04-06T06:26:55;3.40;99.90
46037;DHT22;31769;49.304;8.428;2023-04-06T06:30:00;3.50;99.90
46037;DHT22;31769;49.304;8.428;2023-04-06T06:33:04;3.60;99.90
46037;DHT22;31769;49.304;8.428;2023-04-06T06:36:05;3.70;99.90
46037;DHT22;31769;49.304;8.428;2023-04-06T06:39:06;3.90;99.90
46037;DHT22;31769;49.304;8.428;2023-04-06T06:42:07;4.00;99.90
46037;DHT22;31769;49.304;8.428;2023-04-06T06:45:22;4.00;99.90
46037;DHT22;31769;49.304;8.428;2023-04-06T06:48:22;4.10;99.90
46037;DHT22;31769;49.304;8.428;2023-04-06T06:51:23;4.10;99.90
46037;DHT22;31769;49.304;8.428;2023-04-06T06:54:24;4.20;99.90
46037;DHT22;31769;49.304;8.428;2023-04-06T06:57:25;4.40;99.90
46037;DHT22;31769;49.304;8.428;2023-04-06T07:00:27;4.50;99.90
46037;DHT22;31769;49.304;8.428;2023-04-06T07:03:28;4.50;99.90
46037;DHT22;31769;49.304;8.428;2023-04-06T07:06:29;4.50;99.90
46037;DHT22;31769;49.304;8.428;2023-04-06T07:09:30;4.60;99.90
46037;DHT22;31769;49.304;8.428;2023-04-06T07:12:31;4.70;99.90
46037;DHT22;31769;49.304;8.428;2023-04-06T07:15:31;4.90;99.90
46037;DHT22;31769;49.304;8.428;2023-04-06T07:18:32;5.00;99.90
46037;DHT22;31769;49.304;8.428;2023-04-06T07:21:33;4.90;99.90
46037;DHT22;31769;49.304;8.428;2023-04-06T07:24:34;4.90;99.90
46037;DHT22;31769;49.304;8.428;2023-04-06T07:27:35;5.10;99.90
46037;DHT22;31769;49.304;8.428;2023-04-06T07:30:38;5.30;99.90
46037;DHT22;31769;49.304;8.428;2023-04-06T07:33:39;5.50;99.90
46037;DHT22;31769;49.304;8.428;2023-04-06T07:36:41;5.60;99.90
46037;DHT22;31769;49.304;8.428;2023-04-06T07:39:41;5.70;99.90
46037;DHT22;31769;49.304;8.428;2023-04-06T07:42:42;5.80;99.90
46037;DHT22;31769;49.304;8.428;2023-04-06T07:45:44;6.00;99.90
46037;DHT22;31769;49.304;8.428;2023-04-06T07:48:46;6.00;99.90
46037;DHT22;31769;49.304;8.428;2023-04-06T07:51:46;6.10;99.90
46037;DHT22;31769;49.304;8.428;2023-04-06T07:54:47;6.30;99.90
46037;DHT22;31769;49.304;8.428;2023-04-06T07:57:49;6.30;99.90
46037;DHT22;31769;49.304;8.428;2023-04-06T08:00:51;6.40;99.90
46037;DHT22;31769;49.304;8.428;2023-04-06T08:03:52;6.50;99.90
46037;DHT22;31769;49.304;8.428;2023-04-06T08:06:53;6.60;99.90
46037;DHT22;31769;49.304;8.428;2023-04-06T08:09:53;6.70;99.90
46037;DHT22;31769;49.304;8.428;2023-04-06T08:12:54;6.90;99.90
46037;DHT22;31769;49.304;8.428;2023-04-06T08:15:55;7.20;99.90
46037;DHT22;31769;49.304;8.428;2023-04-06T08:18:55;7.10;99.90
46037;DHT22;31769;49.304;8.428;2023-04-06T08:21:56;7.30;99.90
46037;DHT22;31769;49.304;8.428;2023-04-06T08:24:57;7.60;99.90
46037;DHT22;31769;49.304;8.428;2023-04-06T08:27:57;7.70;99.90
46037;DHT22;31769;49.304;8.428;2023-04-06T08:30:58;7.80;99.90
46037;DHT22;31769;49.304;8.428;2023-04-06T08:33:59;7.70;99.90
46037;DHT22;31769;49.304;8.428;2023-04-06T08:37:00;7.70;99.90
46037;DHT22;31769;49.304;8.428;2023-04-06T08:40:00;8.00;99.90
46037;DHT22;31769;49.304;8.428;2023-04-06T08:43:03;8.30;99.90
46037;DHT22;31769;49.304;8.428;2023-04-06T08:46:09;8.60;99.90
46037;DHT22;31769;49.304;8.428;2023-04-06T08:49:12;8.50;99.90
46037;DHT22;31769;49.304;8.428;2023-04-06T08:52:18;8.60;99.90
46037;DHT22;31769;49.304;8.428;2023-04-06T08:55:19;8.90;99.90
46037;DHT22;31769;49.304;8.428;2023-04-06T08:58:20;9.20;99.90
46037;DHT22;31769;49.304;8.428;2023-04-06T09:01:25;9.60;99.90
46037;DHT22;31769;49.304;8.428;2023-04-06T09:04:26;9.70;99.90
46037;DHT22;31769;49.304;8.428;2023-04-06T09:07:27;9.90;99.90
46037;DHT22;31769;49.304;8.428;2023-04-06T09:10:29;10.10;99.90
46037;DHT22;31769;49.304;8.428;2023-04-06T09:13:30;10.30;99.90
46037;DHT22;31769;49.304;8.428;2023-04-06T09:16:39;10.40;99.90
46037;DHT22;31769;49.304;8.428;2023-04-06T09:19:50;10.40;99.40
46037;DHT22;31769;49.304;8.428;2023-04-06T09:22:51;10.50;97.90
46037;DHT22;31769;49.304;8.428;2023-04-06T09:25:51;10.30;97.30
46037;DHT22;31769;49.304;8.428;2023-04-06T09:28:57;10.30;98.20
46037;DHT22;31769;49.304;8.428;2023-04-06T09:32:05;10.30;95.20
46037;DHT22;31769;49.304;8.428;2023-04-06T09:35:10;10.10;95.10
46037;DHT22;31769;49.304;8.428;2023-04-06T09:38:11;10.20;95.50
46037;DHT22;31769;49.304;8.428;2023-04-06T09:41:30;10.40;94.50
46037;DHT22;31769;49.304;8.428;2023-04-06T09:44:31;10.60;93.60
46037;DHT22;31769;49.304;8.428;2023-04-06T09:47:32;10.60;92.90
46037;DHT22;31769;49.304;8.428;2023-04-06T09:50:33;10.70;93.00
46037;DHT22;31769;49.304;8.428;2023-04-06T09:53:37;10.90;92.80
46037;DHT22;31769;49.304;8.428;2023-04-06T09:56:47;10.90;91.30
46037;DHT22;31769;49.304;8.428;2023-04-06T10:00:07;11.00;92.20
46037;DHT22;31769;49.304;8.428;2023-04-06T10:06:15;11.30;90.40
46037;DHT22;31769;49.304;8.428;2023-04-06T10:09:20;11.40;88.60
46037;DHT22;31769;49.304;8.428;2023-04-06T10:12:22;11.60;88.30
46037;DHT22;31769;49.304;8.428;2023-04-06T10:15:23;11.90;88.30
46037;DHT22;31769;49.304;8.428;2023-04-06T10:18:24;12.10;88.40
46037;DHT22;31769;49.304;8.428;2023-04-06T10:21:26;12.30;84.90
46037;DHT22;31769;49.304;8.428;2023-04-06T10:24:29;12.40;84.10
46037;DHT22;31769;49.304;8.428;2023-04-06T10:27:30;12.40;83.60
46037;DHT22;31769;49.304;8.428;2023-04-06T10:30:33;12.60;82.40
46037;DHT22;31769;49.304;8.428;2023-04-06T10:33:34;12.80;82.40
46037;DHT22;31769;49.304;8.428;2023-04-06T10:36:35;12.90;79.80
46037;DHT22;31769;49.304;8.428;2023-04-06T10:39:45;13.10;79.20
46037;DHT22;31769;49.304;8.428;2023-04-06T10:42:49;13.40;77.10
46037;DHT22;31769;49.304;8.428;2023-04-06T10:45:57;13.50;77.90
46037;DHT22;31769;49.304;8.428;2023-04-06T10:49:11;13.80;76.30
46037;DHT22;31769;49.304;8.428;2023-04-06T10:52:14;14.00;75.60
46037;DHT22;31769;49.304;8.428;2023-04-06T10:55:16;14.30;72.40
46037;DHT22;31769;49.304;8.428;2023-04-06T10:58:17;14.40;68.00
46037;DHT22;31769;49.304;8.428;2023-04-06T11:01:19;14.30;69.60
46037;DHT22;31769;49.304;8.428;2023-04-06T11:04:20;14.80;67.20
46037;DHT22;31769;49.304;8.428;2023-04-06T11:07:26;15.10;65.00
46037;DHT22;31769;49.304;8.428;2023-04-06T11:10:27;15.40;62.80
46037;DHT22;31769;49.304;8.428;2023-04-06T11:13:46;15.50;62.50
46037;DHT22;31769;49.304;8.428;2023-04-06T11:16:47;15.60;61.80
46037;DHT22;31769;49.304;8.428;2023-04-06T11:19:51;15.70;61.70
46037;DHT22;31769;49.304;8.428;2023-04-06T11:22:52;16.20;60.10
46037;DHT22;31769;49.304;8.428;2023-04-06T11:25:54;16.60;59.60
46037;DHT22;31769;49.304;8.428;2023-04-06T11:28:54;16.60;58.10
46037;DHT22;31769;49.304;8.428;2023-04-06T11:32:03;16.40;57.40
46037;DHT22;31769;49.304;8.428;2023-04-06T11:35:04;17.00;57.10
46037;DHT22;31769;49.304;8.428;2023-04-06T11:38:05;16.90;58.20
46037;DHT22;31769;49.304;8.428;2023-04-06T11:41:06;16.70;57.00
46037;DHT22;31769;49.304;8.428;2023-04-06T11:44:07;16.70;58.10
46037;DHT22;31769;49.304;8.428;2023-04-06T11:47:09;17.40;57.50
46037;DHT22;31769;49.304;8.428;2023-04-06T11:50:12;17.40;57.20
46037;DHT22;31769;49.304;8.428;2023-04-06T11:53:13;17.30;56.90
46037;DHT22;31769;49.304;8.428;2023-04-06T11:56:30;17.70;56.50
46037;DHT22;31769;49.304;8.428;2023-04-06T11:59:34;18.90;53.80
46037;DHT22;31769;49.304;8.428;2023-04-06T12:02:36;19.40;52.70
46037;DHT22;31769;49.304;8.428;2023-04-06T12:05:37;19.40;50.50
46037;DHT22;31769;49.304;8.428;2023-04-06T12:08:38;18.70;50.50
46037;DHT22;31769;49.304;8.428;2023-04-06T12:11:39;18.80;49.80
46037;DHT22;31769;49.304;8.428;2023-04-06T12:14:41;18.90;50.50
46037;DHT22;31769;49.304;8.428;2023-04-06T12:17:41;18.80;50.10
46037;DHT22;31769;49.304;8.428;2023-04-06T12:20:42;19.10;51.20
46037;DHT22;31769;49.304;8.428;2023-04-06T12:23:44;19.50;50.30
46037;DHT22;31769;49.304;8.428;2023-04-06T12:26:44;20.20;48.70
46037;DHT22;31769;49.304;8.428;2023-04-06T12:29:45;21.20;47.80
46037;DHT22;31769;49.304;8.428;2023-04-06T12:32:46;23.20;44.00
46037;DHT22;31769;49.304;8.428;2023-04-06T12:35:47;25.50;39.20
46037;DHT22;31769;49.304;8.428;2023-04-06T12:38:48;25.40;38.00
46037;DHT22;31769;49.304;8.428;2023-04-06T12:41:49;25.50;37.30
46037;DHT22;31769;49.304;8.428;2023-04-06T12:44:50;25.90;37.20
46037;DHT22;31769;49.304;8.428;2023-04-06T12:47:50;25.40;36.30
46037;DHT22;31769;49.304;8.428;2023-04-06T12:50:59;25.50;35.90
46037;DHT22;31769;49.304;8.428;2023-04-06T12:54:00;26.70;35.40
46037;DHT22;31769;49.304;8.428;2023-04-06T12:57:01;28.30;33.80
46037;DHT22;31769;49.304;8.428;2023-04-06T13:00:02;27.30;35.00
46037;DHT22;31769;49.304;8.428;2023-04-06T13:03:03;25.90;35.70
46037;DHT22;31769;49.304;8.428;2023-04-06T13:06:04;25.90;35.10
46037;DHT22;31769;49.304;8.428;2023-04-06T13:09:05;27.10;34.40
46037;DHT22;31769;49.304;8.428;2023-04-06T13:12:06;29.50;33.60
46037;DHT22;31769;49.304;8.428;2023-04-06T13:15:07;30.40;32.30
46037;DHT22;31769;49.304;8.428;2023-04-06T13:18:08;27.70;32.90
46037;DHT22;31769;49.304;8.428;2023-04-06T13:21:13;25.60;34.20
46037;DHT22;31769;49.304;8.428;2023-04-06T13:24:15;24.50;34.80
46037;DHT22;31769;49.304;8.428;2023-04-06T13:27:15;22.90;36.20
46037;DHT22;31769;49.304;8.428;2023-04-06T13:30:16;21.70;37.10
46037;DHT22;31769;49.304;8.428;2023-04-06T13:33:17;20.80;38.50
46037;DHT22;31769;49.304;8.428;2023-04-06T13:36:18;20.10;38.80
46037;DHT22;31769;49.304;8.428;2023-04-06T13:39:18;19.90;39.70
46037;DHT22;31769;49.304;8.428;2023-04-06T13:42:19;19.30;40.40
46037;DHT22;31769;49.304;8.428;2023-04-06T13:45:20;18.60;41.60
46037;DHT22;31769;49.304;8.428;2023-04-06T13:48:21;18.40;41.70
46037;DHT22;31769;49.304;8.428;2023-04-06T13:51:22;19.00;41.30
46037;DHT22;31769;49.304;8.428;2023-04-06T13:54:23;20.10;40.70
46037;DHT22;31769;49.304;8.428;2023-04-06T13:57:23;20.70;40.10
46037;DHT22;31769;49.304;8.428;2023-04-06T14:00:24;20.40;40.90
46037;DHT22;31769;49.304;8.428;2023-04-06T14:03:25;19.90;41.10
46037;DHT22;31769;49.304;8.428;2023-04-06T14:06:25;19.30;41.60
46037;DHT22;31769;49.304;8.428;2023-04-06T14:09:27;18.50;42.50
46037;DHT22;31769;49.304;8.428;2023-04-06T14:12:28;18.40;42.20
46037;DHT22;31769;49.304;8.428;2023-04-06T14:15:28;18.70;42.10
46037;DHT22;31769;49.304;8.428;2023-04-06T14:18:30;19.30;41.40
46037;DHT22;31769;49.304;8.428;2023-04-06T14:21:31;19.40;40.70
46037;DHT22;31769;49.304;8.428;2023-04-06T14:24:32;19.30;40.00
46037;DHT22;31769;49.304;8.428;2023-04-06T14:27:32;19.00;40.10
46037;DHT22;31769;49.304;8.428;2023-04-06T14:30:33;18.40;39.90
46037;DHT22;31769;49.304;8.428;2023-04-06T14:33:34;18.30;40.30
46037;DHT22;31769;49.304;8.428;2023-04-06T14:36:34;18.50;40.10
46037;DHT22;31769;49.304;8.428;2023-04-06T14:39:36;19.20;40.30
46037;DHT22;31769;49.304;8.428;2023-04-06T14:42:37;19.40;38.60
46037;DHT22;31769;49.304;8.428;2023-04-06T14:45:38;19.50;37.70
46037;DHT22;31769;49.304;8.428;2023-04-06T14:48:39;19.50;38.40
46037;DHT22;31769;49.304;8.428;2023-04-06T14:51:40;19.20;38.50
46037;DHT22;31769;49.304;8.428;2023-04-06T14:54:42;18.40;39.50
46037;DHT22;31769;49.304;8.428;2023-04-06T14:57:42;17.90;40.30
46037;DHT22;31769;49.304;8.428;2023-04-06T15:00:43;17.50;41.10
46037;DHT22;31769;49.304;8.428;2023-04-06T15:03:44;17.30;42.20
46037;DHT22;31769;49.304;8.428;2023-04-06T15:06:44;17.00;42.10
46037;DHT22;31769;49.304;8.428;2023-04-06T15:09:47;16.70;42.30
46037;DHT22;31769;49.304;8.428;2023-04-06T15:12:49;16.50;42.30
46037;DHT22;31769;49.304;8.428;2023-04-06T15:15:50;16.40;42.20
46037;DHT22;31769;49.304;8.428;2023-04-06T15:18:51;16.40;41.80
46037;DHT22;31769;49.304;8.428;2023-04-06T15:21:52;16.40;42.50
46037;DHT22;31769;49.304;8.428;2023-04-06T15:24:53;16.30;43.90
46037;DHT22;31769;49.304;8.428;2023-04-06T15:27:57;16.10;43.80
46037;DHT22;31769;49.304;8.428;2023-04-06T15:30:58;16.10;45.10
46037;DHT22;31769;49.304;8.428;2023-04-06T15:34:07;15.70;45.90
46037;DHT22;31769;49.304;8.428;2023-04-06T15:37:10;15.60;46.60
46037;DHT22;31769;49.304;8.428;2023-04-06T15:40:11;15.50;47.90
46037;DHT22;31769;49.304;8.428;2023-04-06T15:43:15;15.30;48.10
46037;DHT22;31769;49.304;8.428;2023-04-06T15:46:21;15.10;49.00
46037;DHT22;31769;49.304;8.428;2023-04-06T15:49:21;14.90;49.60
46037;DHT22;31769;49.304;8.428;2023-04-06T15:52:22;14.90;49.70
46037;DHT22;31769;49.304;8.428;2023-04-06T15:55:23;14.80;50.00
46037;DHT22;31769;49.304;8.428;2023-04-06T15:58:23;14.80;50.10
46037;DHT22;31769;49.304;8.428;2023-04-06T16:01:24;14.60;50.20
46037;DHT22;31769;49.304;8.428;2023-04-06T16:04:25;14.40;50.60
46037;DHT22;31769;49.304;8.428;2023-04-06T16:07:26;14.20;51.30
46037;DHT22;31769;49.304;8.428;2023-04-06T16:10:26;14.10;52.00
46037;DHT22;31769;49.304;8.428;2023-04-06T16:13:27;14.00;52.40
46037;DHT22;31769;49.304;8.428;2023-04-06T16:16:28;13.90;53.40
46037;DHT22;31769;49.304;8.428;2023-04-06T16:19:28;13.90;54.70
46037;DHT22;31769;49.304;8.428;2023-04-06T16:22:29;13.80;55.50
46037;DHT22;31769;49.304;8.428;2023-04-06T16:25:30;13.60;55.60
46037;DHT22;31769;49.304;8.428;2023-04-06T16:28:32;13.50;56.40
46037;DHT22;31769;49.304;8.428;2023-04-06T16:31:34;13.40;56.60
46037;DHT22;31769;49.304;8.428;2023-04-06T16:34:35;13.30;57.00
46037;DHT22;31769;49.304;8.428;2023-04-06T16:37:36;13.30;56.80
46037;DHT22;31769;49.304;8.428;2023-04-06T16:40:36;13.10;57.00
46037;DHT22;31769;49.304;8.428;2023-04-06T16:43:42;13.20;57.60
46037;DHT22;31769;49.304;8.428;2023-04-06T16:46:44;13.10;59.10
46037;DHT22;31769;49.304;8.428;2023-04-06T16:49:45;13.00;58.80
46037;DHT22;31769;49.304;8.428;2023-04-06T16:52:46;12.90;59.80
46037;DHT22;31769;49.304;8.428;2023-04-06T16:55:46;12.80;60.60
46037;DHT22;31769;49.304;8.428;2023-04-06T16:58:47;12.90;61.30
46037;DHT22;31769;49.304;8.428;2023-04-06T17:01:48;12.80;62.20
46037;DHT22;31769;49.304;8.428;2023-04-06T17:04:48;12.60;63.20
46037;DHT22;31769;49.304;8.428;2023-04-06T17:07:49;12.60;64.40
46037;DHT22;31769;49.304;8.428;2023-04-06T17:10:51;12.40;65.00
46037;DHT22;31769;49.304;8.428;2023-04-06T17:13:51;12.90;65.90
46037;DHT22;31769;49.304;8.428;2023-04-06T17:16:52;12.30;66.70
46037;DHT22;31769;49.304;8.428;2023-04-06T17:19:53;12.30;68.30
46037;DHT22;31769;49.304;8.428;2023-04-06T17:22:53;12.30;68.80
46037;DHT22;31769;49.304;8.428;2023-04-06T17:25:54;12.20;69.90
46037;DHT22;31769;49.304;8.428;2023-04-06T17:28:55;12.10;71.00
46037;DHT22;31769;49.304;8.428;2023-04-06T17:31:56;12.10;71.80
46037;DHT22;31769;49.304;8.428;2023-04-06T17:34:56;12.00;73.20
46037;DHT22;31769;49.304;8.428;2023-04-06T17:37:57;12.00;74.70
46037;DHT22;31769;49.304;8.428;2023-04-06T17:40:58;11.90;76.00
46037;DHT22;31769;49.304;8.428;2023-04-06T17:43:59;11.70;77.90
46037;DHT22;31769;49.304;8.428;2023-04-06T17:47:00;11.70;80.00
46037;DHT22;31769;49.304;8.428;2023-04-06T17:50:01;11.50;82.50
46037;DHT22;31769;49.304;8.428;2023-04-06T17:53:02;11.40;84.70
46037;DHT22;31769;49.304;8.428;2023-04-06T17:56:03;11.40;85.80
46037;DHT22;31769;49.304;8.428;2023-04-06T17:59:04;11.30;89.20
46037;DHT22;31769;49.304;8.428;2023-04-06T18:02:07;11.20;90.10
46037;DHT22;31769;49.304;8.428;2023-04-06T18:05:08;11.20;91.00
46037;DHT22;31769;49.304;8.428;2023-04-06T18:08:08;11.10;92.40
46037;DHT22;31769;49.304;8.428;2023-04-06T18:11:17;11.00;93.60
46037;DHT22;31769;49.304;8.428;2023-04-06T18:14:17;11.00;94.70
46037;DHT22;31769;49.304;8.428;2023-04-06T18:17:18;10.90;95.50
46037;DHT22;31769;49.304;8.428;2023-04-06T18:20:19;10.80;96.80
46037;DHT22;31769;49.304;8.428;2023-04-06T18:23:20;10.80;99.30
46037;DHT22;31769;49.304;8.428;2023-04-06T18:26:21;10.70;99.90
46037;DHT22;31769;49.304;8.428;2023-04-06T18:29:22;10.60;99.90
46037;DHT22;31769;49.304;8.428;2023-04-06T18:32:22;10.50;99.90
46037;DHT22;31769;49.304;8.428;2023-04-06T18:35:23;10.50;99.90
46037;DHT22;31769;49.304;8.428;2023-04-06T18:38:24;10.40;99.90
46037;DHT22;31769;49.304;8.428;2023-04-06T18:41:24;10.50;99.90
46037;DHT22;31769;49.304;8.428;2023-04-06T18:44:26;10.30;99.90
46037;DHT22;31769;49.304;8.428;2023-04-06T18:47:26;10.20;99.90
46037;DHT22;31769;49.304;8.428;2023-04-06T18:50:27;10.20;99.90
46037;DHT22;31769;49.304;8.428;2023-04-06T18:53:28;10.10;99.90
46037;DHT22;31769;49.304;8.428;2023-04-06T18:56:28;10.10;99.90
46037;DHT22;31769;49.304;8.428;2023-04-06T18:59:29;9.90;99.90
46037;DHT22;31769;49.304;8.428;2023-04-06T19:02:31;10.30;99.90
46037;DHT22;31769;49.304;8.428;2023-04-06T19:05:32;9.90;99.90
46037;DHT22;31769;49.304;8.428;2023-04-06T19:08:33;9.80;99.90
46037;DHT22;31769;49.304;8.428;2023-04-06T19:11:35;9.90;99.90
46037;DHT22;31769;49.304;8.428;2023-04-06T19:14:36;9.80;99.90
46037;DHT22;31769;49.304;8.428;2023-04-06T19:17:36;10.90;99.90
46037;DHT22;31769;49.304;8.428;2023-04-06T19:20:37;9.80;99.90
46037;DHT22;31769;49.304;8.428;2023-04-06T19:23:38;9.80;99.90